createdAt,value
2023-02-11T00:01:20.774Z,43.83
2023-02-11T00:03:47.773Z,34.33
2023-02-11T00:06:14.873Z,39.40
2023-02-11T00:08:42.003Z,35.65
2023-02-11T00:11:17.755Z,34.00
2023-02-11T00:13:46.630Z,38.40
2023-02-11T00:16:20.965Z,33.28
2023-02-11T00:18:48.680Z,34.23
2023-02-11T00:21:20.102Z,34.75
2023-02-11T00:23:48.376Z,33.70
2023-02-11T00:26:20.105Z,38.78
2023-02-11T00:28:49.359Z,40.42
2023-02-11T00:31:18.515Z,36.03
2023-02-11T00:33:46.892Z,29.48
2023-02-11T00:36:18.950Z,37.95
2023-02-11T00:38:49.885Z,41.95
2023-02-11T00:41:18.524Z,37.35
2023-02-11T00:43:46.323Z,39.70
2023-02-11T00:46:13.666Z,40.05
2023-02-11T00:48:41.169Z,36.40
2023-02-11T00:51:09.186Z,38.58
2023-02-11T00:53:37.171Z,33.85
2023-02-11T00:56:05.406Z,40.42
2023-02-11T00:58:33.450Z,40.22
2023-02-11T01:01:00.544Z,32.10
2023-02-11T01:03:27.981Z,34.58
2023-02-11T01:05:55.932Z,37.83
2023-02-11T01:08:23.205Z,32.88
2023-02-11T01:11:01.705Z,38.15
2023-02-11T01:13:31.924Z,34.92
2023-02-11T01:15:59.441Z,36.35
2023-02-11T01:18:27.162Z,37.25
2023-02-11T01:20:54.931Z,38.85
2023-02-11T01:23:24.021Z,37.13
2023-02-11T01:25:51.996Z,37.30
2023-02-11T01:28:23.115Z,35.60
2023-02-11T01:30:50.360Z,38.22
2023-02-11T01:33:17.686Z,37.45
2023-02-11T01:35:45.197Z,36.75
2023-02-11T01:38:22.764Z,35.50
2023-02-11T01:40:57.406Z,33.83
2023-02-11T01:43:27.693Z,34.45
2023-02-11T01:46:06.542Z,33.63
2023-02-11T01:48:41.977Z,36.47
2023-02-11T01:51:48.489Z,32.67
2023-02-11T01:54:42.366Z,34.75
2023-02-11T01:57:24.764Z,38.08
2023-02-11T02:00:15.482Z,35.13
2023-02-11T02:03:02.607Z,38.03
2023-02-11T02:05:51.599Z,32.17
2023-02-11T02:08:29.488Z,35.70
2023-02-11T02:11:00.826Z,36.28
2023-02-11T02:13:31.470Z,34.85
2023-02-11T02:16:10.767Z,37.10
2023-02-11T02:19:18.344Z,31.33
2023-02-11T02:22:46.079Z,31.67
2023-02-11T02:25:49.050Z,35.50
2023-02-11T02:29:03.737Z,39.08
2023-02-11T02:32:10.246Z,38.90
2023-02-11T02:34:56.862Z,33.45
2023-02-11T02:38:10.399Z,33.25
2023-02-11T02:40:47.984Z,30.88
2023-02-11T02:43:17.463Z,32.00
2023-02-11T02:45:44.438Z,34.72
2023-02-11T02:48:35.925Z,35.30
2023-02-11T02:51:21.541Z,33.05
2023-02-11T02:54:28.974Z,34.63
2023-02-11T02:57:26.680Z,33.75
2023-02-11T03:00:27.301Z,37.58
2023-02-11T03:03:32.559Z,33.08
2023-02-11T03:06:30.499Z,33.38
2023-02-11T03:09:11.378Z,32.95
2023-02-11T03:11:40.339Z,32.38
2023-02-11T03:14:15.302Z,31.70
2023-02-11T03:16:44.583Z,35.55
2023-02-11T03:19:30.488Z,34.50
2023-02-11T03:21:58.228Z,31.25
2023-02-11T03:24:39.857Z,31.88
2023-02-11T03:27:31.445Z,29.95
2023-02-11T03:30:16.731Z,31.40
2023-02-11T03:32:59.629Z,29.08
2023-02-11T03:35:43.756Z,32.92
2023-02-11T03:38:22.204Z,31.50
2023-02-11T03:40:52.025Z,34.47
2023-02-11T03:43:25.352Z,33.65
2023-02-11T03:45:55.710Z,31.27
2023-02-11T03:48:38.777Z,34.53
2023-02-11T03:51:10.905Z,31.92
2023-02-11T03:53:42.867Z,36.88
2023-02-11T03:56:18.151Z,32.33
2023-02-11T04:01:13.241Z,38.45
2023-02-11T04:03:40.760Z,38.33
2023-02-11T04:06:08.396Z,32.88
2023-02-11T04:08:35.579Z,35.25
2023-02-11T04:11:02.772Z,32.85
2023-02-11T04:13:30.101Z,33.00
2023-02-11T04:15:57.130Z,32.35
2023-02-11T04:18:24.134Z,36.85
2023-02-11T04:20:51.425Z,37.22
2023-02-11T04:23:18.346Z,35.45
2023-02-11T04:25:45.288Z,34.78
2023-02-11T04:28:12.662Z,37.10
2023-02-11T04:30:39.676Z,35.47
2023-02-11T04:33:06.662Z,37.33
2023-02-11T04:35:33.622Z,40.72
2023-02-11T04:38:00.586Z,35.17
2023-02-11T04:40:27.635Z,39.60
2023-02-11T04:42:54.700Z,33.85
2023-02-11T04:45:21.608Z,33.67
2023-02-11T04:47:48.494Z,34.70
2023-02-11T04:50:15.479Z,36.60
2023-02-11T04:52:42.372Z,31.33
2023-02-11T04:55:09.412Z,38.42
2023-02-11T04:57:36.400Z,38.92
2023-02-11T05:00:04.874Z,35.28
2023-02-11T05:02:35.397Z,32.50
2023-02-11T05:05:02.872Z,33.70
2023-02-11T05:07:29.920Z,36.08
2023-02-11T05:09:56.848Z,36.63
2023-02-11T05:12:23.867Z,37.95
2023-02-11T05:14:50.756Z,33.15
2023-02-11T05:17:17.748Z,34.33
2023-02-11T05:19:44.665Z,37.65
2023-02-11T05:22:11.662Z,35.90
2023-02-11T05:24:38.678Z,37.50
2023-02-11T05:27:05.581Z,39.85
2023-02-11T05:29:32.574Z,40.28
2023-02-11T05:32:00.234Z,35.90
2023-02-11T05:34:27.139Z,34.63
2023-02-11T05:36:54.112Z,34.05
2023-02-11T05:39:21.390Z,36.90
2023-02-11T05:41:48.375Z,35.38
2023-02-11T05:44:15.237Z,37.50
2023-02-11T05:46:42.166Z,35.60
2023-02-11T05:49:09.366Z,37.40
2023-02-11T05:51:36.293Z,37.50
2023-02-11T05:54:03.705Z,39.08
2023-02-11T05:56:30.635Z,37.55
2023-02-11T05:58:59.870Z,35.78
2023-02-11T06:01:27.474Z,41.75
2023-02-11T06:03:54.976Z,38.35
2023-02-11T06:06:22.168Z,40.00
2023-02-11T06:08:49.211Z,38.45
2023-02-11T06:11:17.706Z,40.72
2023-02-11T06:13:44.651Z,40.22
2023-02-11T06:16:11.584Z,39.20
2023-02-11T06:18:38.565Z,40.80
2023-02-11T06:21:10.495Z,41.35
2023-02-11T06:23:38.282Z,43.38
2023-02-11T06:26:18.653Z,42.55
2023-02-11T06:28:45.855Z,43.78
2023-02-11T06:31:13.955Z,39.50
2023-02-11T06:33:41.454Z,44.47
2023-02-11T06:36:26.462Z,43.03
2023-02-11T06:38:53.561Z,44.10
2023-02-11T06:41:20.696Z,40.83
2023-02-11T06:43:48.775Z,42.08
2023-02-11T06:46:16.177Z,41.13
2023-02-11T06:48:44.978Z,44.53
2023-02-11T06:51:14.689Z,38.83
2023-02-11T06:53:47.062Z,41.58
2023-02-11T06:56:20.975Z,42.50
2023-02-11T06:58:48.646Z,41.17
2023-02-11T07:01:16.831Z,40.58
2023-02-11T07:03:45.804Z,41.13
2023-02-11T07:06:17.148Z,40.15
2023-02-11T07:08:46.383Z,47.10
2023-02-11T07:11:32.976Z,38.15
2023-02-11T07:14:23.679Z,39.53
2023-02-11T07:16:50.666Z,40.75
2023-02-11T07:19:17.796Z,43.80
2023-02-11T07:21:44.752Z,40.60
2023-02-11T07:24:13.041Z,42.90
2023-02-11T07:26:40.318Z,42.78
2023-02-11T07:29:07.223Z,43.13
2023-02-11T07:31:34.375Z,46.47
2023-02-11T07:34:02.325Z,42.65
2023-02-11T07:36:34.436Z,40.78
2023-02-11T07:39:01.424Z,42.83
2023-02-11T07:41:28.357Z,41.70
2023-02-11T07:43:56.112Z,43.03
2023-02-11T07:46:28.063Z,43.55
2023-02-11T07:48:58.001Z,40.67
2023-02-11T07:51:31.501Z,40.58
2023-02-11T07:54:02.327Z,41.35
2023-02-11T07:59:53.562Z,44.22
2023-02-11T08:02:21.039Z,46.30
2023-02-11T08:08:44.814Z,42.95
2023-02-11T08:11:50.242Z,39.88
2023-02-11T08:23:18.552Z,40.47
2023-02-11T08:25:45.858Z,44.22
2023-02-11T08:28:13.045Z,42.80
2023-02-11T08:30:40.183Z,39.40
2023-02-11T08:33:07.084Z,38.75
2023-02-11T08:35:35.769Z,41.67
2023-02-11T08:38:02.703Z,37.95
2023-02-11T08:40:29.752Z,41.50
2023-02-11T08:42:56.724Z,41.08
2023-02-11T08:45:23.745Z,39.53
2023-02-11T08:47:51.086Z,36.15
2023-02-11T08:50:18.067Z,40.45
2023-02-11T08:52:45.107Z,41.00
2023-02-11T08:55:12.042Z,40.97
2023-02-11T08:57:38.952Z,40.65
2023-02-11T09:00:06.826Z,38.25
2023-02-11T09:02:33.844Z,39.00
2023-02-11T09:05:00.926Z,37.50
2023-02-11T09:07:28.860Z,36.05
2023-02-11T09:10:14.669Z,34.72
2023-02-11T09:12:52.603Z,39.88
2023-02-11T09:15:19.520Z,37.67
2023-02-11T09:17:46.479Z,36.80
2023-02-11T09:20:13.500Z,38.25
2023-02-11T09:22:40.413Z,36.85
2023-02-11T09:25:07.617Z,38.53
2023-02-11T09:27:34.547Z,37.97
2023-02-11T09:30:01.472Z,37.50
2023-02-11T09:32:28.407Z,38.45
2023-02-11T09:34:57.727Z,37.58
2023-02-11T09:37:24.866Z,38.22
2023-02-11T09:39:51.755Z,34.92
2023-02-11T09:42:43.112Z,39.80
2023-02-11T09:45:27.544Z,39.13
2023-02-11T09:48:20.448Z,36.78
2023-02-11T09:51:00.291Z,40.72
2023-02-11T09:53:31.982Z,38.95
2023-02-11T09:56:11.335Z,39.22
2023-02-11T09:58:44.748Z,41.50
2023-02-11T10:01:40.301Z,36.28
2023-02-11T10:05:04.855Z,34.80
2023-02-11T10:07:51.466Z,38.35
2023-02-11T10:10:54.046Z,38.05
2023-02-11T10:14:00.735Z,36.13
2023-02-11T10:19:46.073Z,37.28
2023-02-11T10:22:30.971Z,42.47
2023-02-11T10:25:17.045Z,38.13
2023-02-11T10:27:48.056Z,38.03
2023-02-11T10:30:28.993Z,36.45
2023-02-11T10:33:13.925Z,37.45
2023-02-11T10:35:43.767Z,36.85
2023-02-11T10:38:11.845Z,37.25
2023-02-11T10:40:39.487Z,37.22
2023-02-11T10:43:14.112Z,39.38
2023-02-11T10:45:53.985Z,36.47
2023-02-11T10:48:43.050Z,30.35
2023-02-11T10:51:14.556Z,36.28
2023-02-11T10:53:42.265Z,34.67
2023-02-11T10:56:22.785Z,35.53
2023-02-11T10:59:01.336Z,33.92
2023-02-11T11:01:54.508Z,32.53
2023-02-11T11:04:45.732Z,35.63
2023-02-11T11:07:25.048Z,35.03
2023-02-11T11:10:02.654Z,33.40
2023-02-11T11:12:42.244Z,36.20
2023-02-11T11:15:23.514Z,32.35
2023-02-11T11:18:21.859Z,33.83
2023-02-11T11:21:02.297Z,33.47
2023-02-11T11:23:34.641Z,30.98
2023-02-11T11:26:13.595Z,33.60
2023-02-11T11:29:02.531Z,36.33
2023-02-11T11:31:46.160Z,35.42
2023-02-11T11:34:29.606Z,34.63
2023-02-11T11:36:58.988Z,33.97
2023-02-11T11:39:35.572Z,36.05
2023-02-11T11:42:22.014Z,31.75
2023-02-11T11:45:00.728Z,34.38
2023-02-11T11:47:47.604Z,34.10
2023-02-11T11:50:39.995Z,31.30
2023-02-11T11:53:31.361Z,33.92
2023-02-11T11:56:12.133Z,36.97
2023-02-11T11:58:39.352Z,35.92
2023-02-11T12:01:29.436Z,32.10
2023-02-11T12:04:14.472Z,32.53
2023-02-11T12:07:25.957Z,35.78
2023-02-11T12:10:15.680Z,34.17
2023-02-11T12:13:12.988Z,29.42
2023-02-11T12:16:13.964Z,34.38
2023-02-11T12:19:05.347Z,37.55
2023-02-11T12:21:58.326Z,33.28
2023-02-11T12:24:34.719Z,33.33
2023-02-11T12:27:14.002Z,34.58
2023-02-11T12:30:39.989Z,34.88
2023-02-11T12:33:48.121Z,33.30
2023-02-11T12:37:38.038Z,35.95
2023-02-11T12:40:17.751Z,32.45
2023-02-11T12:43:10.065Z,33.40
2023-02-11T12:46:20.953Z,31.63
2023-02-11T12:49:30.660Z,35.75
2023-02-11T12:52:32.430Z,38.17
2023-02-11T12:55:22.379Z,32.25
2023-02-11T12:57:52.452Z,36.95
2023-02-11T13:00:24.896Z,35.92
2023-02-11T13:03:18.464Z,33.08
2023-02-11T13:05:57.994Z,32.40
2023-02-11T13:08:47.426Z,30.55
2023-02-11T13:11:24.097Z,33.13
2023-02-11T13:13:57.583Z,34.17
2023-02-11T13:16:49.745Z,36.83
2023-02-11T13:19:26.609Z,31.27
2023-02-11T13:22:20.852Z,33.38
2023-02-11T13:25:40.679Z,33.90
2023-02-11T13:28:27.672Z,33.60
2023-02-11T13:31:02.954Z,33.95
2023-02-11T13:33:36.154Z,34.60
2023-02-11T13:36:04.729Z,32.95
2023-02-11T13:38:32.754Z,32.33
2023-02-11T13:41:02.011Z,31.80
2023-02-11T13:43:32.941Z,32.45
2023-02-11T13:46:11.962Z,28.13
2023-02-11T13:48:53.035Z,28.10
2023-02-11T13:51:38.625Z,33.47
2023-02-11T13:54:08.081Z,36.38
2023-02-11T13:56:46.248Z,36.25
2023-02-11T13:59:25.599Z,32.28
2023-02-11T14:02:39.420Z,28.55
2023-02-11T14:05:24.766Z,34.10
2023-02-11T14:08:28.559Z,29.85
2023-02-11T14:11:25.251Z,27.70
2023-02-11T14:13:52.178Z,30.55
2023-02-11T14:16:36.918Z,33.45
2023-02-11T14:19:06.204Z,27.73
2023-02-11T14:21:47.570Z,27.98
2023-02-11T14:24:14.507Z,29.98
2023-02-11T14:26:54.160Z,30.25
2023-02-11T14:30:05.750Z,29.63
2023-02-11T14:33:11.727Z,30.17
2023-02-11T14:36:04.597Z,31.13
2023-02-11T14:38:52.336Z,31.33
2023-02-11T14:41:30.642Z,31.95
2023-02-11T14:44:11.666Z,31.42
2023-02-11T14:46:45.026Z,32.28
2023-02-11T14:49:39.532Z,30.52
2023-02-11T14:52:35.126Z,35.92
2023-02-11T14:55:32.004Z,31.88
2023-02-11T14:58:32.943Z,32.65
2023-02-11T15:01:22.859Z,29.25
2023-02-11T15:03:50.328Z,31.15
2023-02-11T15:06:36.652Z,28.55
2023-02-11T15:09:19.871Z,31.05
2023-02-11T15:11:51.867Z,30.60
2023-02-11T15:14:31.741Z,33.85
2023-02-11T15:17:03.712Z,32.45
2023-02-11T15:19:41.010Z,31.80
2023-02-11T15:22:22.266Z,27.60
2023-02-11T15:25:07.575Z,32.15
2023-02-11T15:27:42.739Z,29.73
2023-02-11T15:30:39.156Z,31.65
2023-02-11T15:33:06.860Z,30.52
2023-02-11T15:35:41.110Z,33.10
2023-02-11T15:38:12.982Z,31.10
2023-02-11T15:40:40.361Z,29.27
2023-02-11T15:43:11.556Z,26.10
2023-02-11T15:45:54.414Z,31.17
2023-02-11T15:48:37.674Z,28.80
2023-02-11T15:51:31.414Z,31.88
2023-02-11T15:54:05.885Z,31.10
2023-02-11T15:56:43.436Z,28.53
2023-02-11T15:59:42.830Z,28.52
2023-02-11T16:02:35.004Z,25.67
2023-02-11T16:05:10.064Z,29.15
2023-02-11T16:07:52.310Z,26.20
2023-02-11T16:10:34.414Z,30.13
2023-02-11T16:13:07.247Z,28.30
2023-02-11T16:15:34.253Z,28.92
2023-02-11T16:18:12.600Z,30.23
2023-02-11T16:20:39.939Z,30.27
2023-02-11T16:23:08.083Z,30.83
2023-02-11T16:25:36.207Z,30.42
2023-02-11T16:28:03.306Z,30.70
2023-02-11T16:30:37.763Z,30.88
2023-02-11T16:33:05.487Z,37.10
2023-02-11T16:35:36.042Z,29.05
2023-02-11T16:38:04.362Z,28.55
2023-02-11T16:40:34.068Z,36.40
2023-02-11T16:43:01.315Z,30.90
2023-02-11T16:45:28.542Z,28.67
2023-02-11T16:48:02.159Z,32.63
2023-02-11T16:50:31.967Z,28.50
2023-02-11T16:53:02.337Z,34.17
2023-02-11T16:55:29.995Z,34.60
2023-02-11T16:57:56.945Z,37.60
2023-02-11T17:00:24.273Z,33.42
2023-02-11T17:02:51.735Z,30.63
2023-02-11T17:05:23.025Z,38.25
2023-02-11T17:07:52.805Z,39.30
2023-02-11T17:10:26.977Z,32.17
2023-02-11T17:14:35.047Z,34.58
2023-02-11T17:23:18.856Z,36.28
2023-02-11T17:25:56.656Z,39.13
2023-02-11T17:28:24.635Z,42.03
2023-02-11T17:30:54.629Z,40.70
2023-02-11T17:33:23.724Z,45.85
2023-02-11T17:35:53.942Z,39.63
2023-02-11T17:38:29.327Z,42.72
2023-02-11T17:41:01.829Z,40.10
2023-02-11T17:43:29.225Z,39.88
2023-02-11T17:46:06.786Z,39.75
2023-02-11T17:48:34.529Z,40.45
2023-02-11T17:51:01.464Z,42.83
2023-02-11T17:53:28.723Z,43.08
2023-02-11T17:55:58.805Z,42.58
2023-02-11T17:58:27.386Z,41.88
2023-02-11T18:01:33.808Z,42.60
2023-02-11T18:04:11.594Z,42.95
2023-02-11T18:06:38.621Z,49.42
2023-02-11T18:09:08.235Z,43.80
2023-02-11T18:11:38.733Z,52.47
2023-02-11T18:14:42.678Z,50.22
2023-02-11T18:17:34.951Z,45.13
2023-02-11T18:20:03.668Z,53.38
2023-02-11T18:22:36.460Z,50.15
2023-02-11T18:25:03.458Z,48.75
2023-02-11T18:27:30.421Z,48.75
2023-02-11T18:29:57.434Z,53.75
2023-02-11T18:32:24.455Z,48.55
2023-02-11T18:34:51.411Z,53.05
2023-02-11T18:37:18.428Z,51.20
2023-02-11T18:39:45.354Z,50.58
2023-02-11T18:42:12.274Z,50.00
2023-02-11T18:44:39.231Z,51.55
2023-02-11T18:47:06.233Z,53.47
2023-02-11T18:49:35.602Z,55.00
2023-02-11T18:52:03.609Z,55.42
2023-02-11T18:54:30.592Z,56.45
2023-02-11T18:56:57.540Z,57.78
2023-02-11T18:59:25.660Z,51.17
2023-02-11T19:01:52.725Z,49.88
2023-02-11T19:04:20.173Z,50.20
2023-02-11T19:06:49.788Z,56.00
2023-02-11T19:09:20.550Z,52.55
2023-02-11T19:11:48.790Z,52.67
2023-02-11T19:14:26.064Z,54.13
2023-02-11T19:16:57.048Z,56.22
2023-02-11T19:19:28.240Z,56.92
2023-02-11T19:21:57.254Z,51.15
2023-02-11T19:24:25.809Z,53.17
2023-02-11T19:26:57.307Z,50.75
2023-02-11T19:29:24.990Z,47.92
2023-02-11T19:31:52.092Z,49.65
2023-02-11T19:34:20.679Z,52.00
2023-02-11T19:36:49.678Z,53.80
2023-02-11T19:39:17.117Z,46.45
2023-02-11T19:41:44.366Z,49.83
2023-02-11T19:44:14.442Z,50.53
2023-02-11T19:46:41.565Z,44.92
2023-02-11T19:49:09.955Z,48.80
2023-02-11T19:51:39.210Z,47.83
2023-02-11T19:54:07.552Z,43.08
2023-02-11T19:56:34.848Z,51.10
2023-02-11T19:59:03.499Z,45.03
2023-02-11T20:01:30.556Z,43.95
2023-02-11T20:03:57.706Z,45.03
2023-02-11T20:06:29.301Z,47.00
2023-02-11T20:09:07.032Z,44.53
2023-02-11T20:11:35.555Z,44.20
2023-02-11T20:14:03.925Z,40.20
2023-02-11T20:16:47.643Z,46.35
2023-02-11T20:19:19.906Z,45.40
2023-02-11T20:21:50.384Z,41.92
2023-02-11T20:24:18.778Z,47.03
2023-02-11T20:26:48.132Z,48.20
2023-02-11T20:29:18.969Z,44.63
2023-02-11T20:31:46.163Z,43.50
2023-02-11T20:34:13.287Z,45.22
2023-02-11T20:36:40.901Z,49.25
2023-02-11T20:39:08.551Z,41.65
2023-02-11T20:41:40.015Z,45.47
2023-02-11T20:44:10.526Z,48.15
2023-02-11T20:46:41.466Z,49.22
2023-02-11T20:49:12.617Z,44.80
2023-02-11T20:51:40.513Z,42.47
2023-02-11T20:54:15.561Z,42.45
2023-02-11T20:59:14.535Z,47.80
2023-02-11T21:01:45.925Z,47.08
2023-02-11T21:04:29.889Z,45.40
2023-02-11T21:07:02.260Z,42.63
2023-02-11T21:09:33.978Z,46.28
2023-02-11T21:12:02.434Z,47.35
2023-02-11T21:14:30.384Z,48.58
2023-02-11T21:16:57.897Z,50.97
2023-02-11T21:19:26.859Z,49.05
2023-02-11T21:21:55.332Z,49.42
2023-02-11T21:24:22.520Z,52.05
2023-02-11T21:26:50.244Z,50.00
2023-02-11T21:29:17.864Z,47.35
2023-02-11T21:31:44.888Z,45.92
2023-02-11T21:34:18.130Z,46.25
2023-02-11T21:36:46.028Z,46.78
2023-02-11T21:39:14.213Z,51.65
2023-02-11T21:41:41.242Z,45.78
2023-02-11T21:44:09.347Z,46.50
2023-02-11T21:46:37.479Z,47.47
2023-02-11T21:49:04.712Z,50.20
2023-02-11T21:51:31.645Z,48.05
2023-02-11T21:54:02.239Z,48.58
2023-02-11T21:56:32.512Z,49.75
2023-02-11T21:59:04.016Z,47.65
2023-02-11T22:01:36.103Z,49.15
2023-02-11T22:04:04.175Z,48.35
2023-02-11T22:06:35.436Z,52.00
2023-02-11T22:09:08.451Z,54.20
2023-02-11T22:11:35.868Z,50.17
2023-02-11T22:14:03.062Z,55.70
2023-02-11T22:16:31.701Z,51.42
2023-02-11T22:18:59.481Z,53.97
2023-02-11T22:21:27.326Z,52.15
2023-02-11T22:23:56.140Z,51.17
2023-02-11T22:26:26.724Z,52.35
2023-02-11T22:28:55.149Z,51.63
2023-02-11T22:31:29.793Z,49.38
2023-02-11T22:33:59.705Z,48.67
2023-02-11T22:36:36.708Z,47.17
2023-02-11T22:39:15.654Z,47.30
2023-02-11T22:41:44.804Z,46.13
2023-02-11T22:44:13.093Z,49.38
2023-02-11T22:46:40.822Z,50.60
2023-02-11T22:49:08.294Z,50.97
2023-02-11T22:51:35.255Z,47.65
2023-02-11T22:54:05.386Z,53.05
2023-02-11T22:56:34.788Z,55.10
2023-02-11T22:59:05.771Z,51.88
2023-02-11T23:01:32.937Z,50.60
2023-02-11T23:04:02.667Z,51.50
2023-02-11T23:06:32.957Z,52.85
2023-02-11T23:09:00.146Z,48.53
2023-02-11T23:11:30.476Z,48.15
2023-02-11T23:13:58.297Z,53.08
2023-02-11T23:16:32.666Z,49.80
2023-02-11T23:19:03.903Z,50.88
2023-02-11T23:21:34.194Z,50.40
2023-02-11T23:24:06.875Z,56.08
2023-02-11T23:26:34.944Z,49.28
2023-02-11T23:29:02.589Z,57.05
2023-02-11T23:31:40.633Z,56.28
2023-02-11T23:34:09.987Z,57.15
2023-02-11T23:36:39.208Z,50.67
2023-02-11T23:39:06.505Z,51.65
2023-02-11T23:41:33.555Z,57.10
2023-02-11T23:44:00.619Z,54.03
2023-02-11T23:46:28.576Z,54.08
2023-02-11T23:48:56.052Z,48.85
2023-02-11T23:51:23.687Z,56.53
2023-02-11T23:53:54.771Z,58.92
2023-02-11T23:56:26.387Z,52.58
2023-02-11T23:58:56.878Z,57.67
